Time;durP1;ratioP1;P1;durP2;ratioP2;P2;SDS_P1;SDS_P2;PMS_P1;PMS_P2;Temp;Humidity;BMP_temperature;BMP_pressure;BME280_temperature;BME280_humidity;BME280_pressure;Samples;Min_cycle;Max_cycle;Signal;HPM_P1;HPM_P2
2022/04/28 00:00:50;;;;;;;9.80;2.72;;;10.70;94.90;;;;;;5054524;28;20094;-74
2022/04/28 00:03:15;;;;;;;9.80;2.85;;;10.80;95.00;;;;;;5037892;28;20055;-74
2022/04/28 00:05:42;;;;;;;11.90;2.85;;;10.80;94.90;;;;;;5038056;28;20060;-74
2022/04/28 00:08:09;;;;;;;10.05;2.95;;;10.90;95.00;;;;;;5055274;28;20052;-75
2022/04/28 00:10:36;;;;;;;12.43;2.95;;;10.90;95.20;;;;;;5054428;28;20049;-74
2022/04/28 00:13:03;;;;;;;9.13;2.67;;;10.80;95.10;;;;;;5054627;28;20048;-74
2022/04/28 00:15:29;;;;;;;12.25;2.72;;;10.80;94.80;;;;;;5053887;28;20049;-74
2022/04/28 00:17:55;;;;;;;8.07;2.35;;;10.70;94.40;;;;;;5054245;28;20055;-74
2022/04/28 00:20:21;;;;;;;5.88;2.10;;;10.70;94.30;;;;;;5054143;28;20484;-74
2022/04/28 00:22:47;;;;;;;11.30;2.15;;;10.80;94.70;;;;;;5054074;28;20053;-75
2022/04/28 00:25:13;;;;;;;12.02;2.78;;;10.90;94.70;;;;;;5020908;28;20061;-74
2022/04/28 00:27:39;;;;;;;10.45;2.67;;;10.90;94.70;;;;;;5054045;28;20103;-74
2022/04/28 00:30:06;;;;;;;8.95;2.15;;;10.90;94.20;;;;;;5054102;28;20091;-74
2022/04/28 00:32:32;;;;;;;8.07;2.10;;;10.80;94.70;;;;;;5054164;28;20057;-74
2022/04/28 00:34:58;;;;;;;9.80;2.35;;;10.90;94.80;;;;;;5037080;28;20374;-74
2022/04/28 00:37:23;;;;;;;9.32;2.67;;;10.90;94.80;;;;;;5053893;28;20084;-74
2022/04/28 00:39:50;;;;;;;11.27;2.70;;;10.90;94.80;;;;;;5020735;28;20546;-74
2022/04/28 00:42:17;;;;;;;10.35;2.35;;;10.90;94.70;;;;;;5020849;28;20562;-74
2022/04/28 00:44:43;;;;;;;6.40;2.00;;;10.90;94.90;;;;;;5036538;28;20057;-74
2022/04/28 00:47:09;;;;;;;11.05;2.90;;;10.90;94.70;;;;;;5037113;28;20052;-74
2022/04/28 00:52:20;;;;;;;9.65;2.50;;;10.90;94.50;;;;;;5036952;28;20196;-74
2022/04/28 00:54:47;;;;;;;10.20;2.67;;;10.80;94.90;;;;;;5036017;28;20135;-74
2022/04/28 00:57:14;;;;;;;10.82;2.40;;;10.90;95.00;;;;;;5020390;28;20091;-74
2022/04/28 00:59:39;;;;;;;7.97;2.58;;;10.90;95.00;;;;;;5020680;28;20168;-74
2022/04/28 01:02:06;;;;;;;7.07;2.40;;;10.90;95.10;;;;;;5020214;28;20064;-74
2022/04/28 01:04:33;;;;;;;9.35;2.63;;;10.90;95.20;;;;;;5036673;28;20538;-74
2022/04/28 01:06:59;;;;;;;7.80;2.40;;;10.90;94.70;;;;;;5036718;28;20061;-74
2022/04/28 01:09:25;;;;;;;9.13;2.33;;;10.90;95.10;;;;;;5054047;28;20041;-74
2022/04/28 01:11:51;;;;;;;7.38;2.53;;;10.90;95.30;;;;;;5054245;28;20052;-74
2022/04/28 01:14:16;;;;;;;14.23;2.83;;;10.90;95.00;;;;;;5019689;28;20048;-74
2022/04/28 01:16:42;;;;;;;9.65;2.42;;;10.80;95.10;;;;;;5036255;28;20048;-74
2022/04/28 01:19:08;;;;;;;9.57;2.60;;;10.90;94.90;;;;;;5036358;28;20139;-75
2022/04/28 01:21:34;;;;;;;9.30;2.25;;;10.90;94.90;;;;;;5036447;28;20045;-74
2022/04/28 01:24:01;;;;;;;9.02;2.25;;;10.90;94.70;;;;;;5036766;28;20079;-74
2022/04/28 01:26:28;;;;;;;13.32;2.30;;;10.90;95.00;;;;;;5019869;28;20091;-74
2022/04/28 01:28:54;;;;;;;10.15;2.25;;;11.00;95.00;;;;;;5019857;28;20144;-74
2022/04/28 01:31:19;;;;;;;5.30;1.88;;;11.00;95.10;;;;;;5036422;28;20132;-74
2022/04/28 01:33:45;;;;;;;9.13;2.50;;;10.90;95.10;;;;;;5036330;28;20079;-75
2022/04/28 01:36:11;;;;;;;5.20;2.00;;;10.90;94.90;;;;;;5036116;28;20045;-74
2022/04/28 01:38:36;;;;;;;9.98;2.50;;;10.80;95.20;;;;;;5036168;28;20049;-74
2022/04/28 01:41:02;;;;;;;10.70;2.50;;;10.80;94.70;;;;;;5036102;28;20049;-74
2022/04/28 01:43:28;;;;;;;14.77;2.38;;;10.80;94.80;;;;;;5019698;28;20045;-74
2022/04/28 01:45:53;;;;;;;6.18;2.05;;;10.90;95.30;;;;;;5028478;28;20057;-74
2022/04/28 01:48:19;;;;;;;8.55;2.28;;;10.90;95.10;;;;;;5035902;28;20056;-74
2022/04/28 01:54:57;;;;;;;9.57;2.45;;;10.90;95.50;;;;;;5036188;28;20087;-74
2022/04/28 01:56:15;;;;;;;12.32;2.42;;;10.90;95.20;;;;;;5052703;28;20079;-74
2022/04/28 01:58:40;;;;;;;8.50;2.35;;;10.90;95.40;;;;;;5052540;28;20408;-74
2022/04/28 02:01:07;;;;;;;7.47;2.10;;;10.90;95.40;;;;;;5052170;28;20114;-74
2022/04/28 02:03:32;;;;;;;10.45;2.45;;;10.90;95.20;;;;;;5035920;28;20528;-74
2022/04/28 02:05:59;;;;;;;7.47;2.10;;;10.90;95.10;;;;;;5037692;28;20127;-74
2022/04/28 02:08:24;;;;;;;9.48;2.63;;;10.80;95.10;;;;;;5056726;28;20073;-74
2022/04/28 02:10:50;;;;;;;8.93;2.72;;;10.80;95.10;;;;;;5023602;28;20048;-74
2022/04/28 02:13:16;;;;;;;6.82;2.08;;;10.80;95.00;;;;;;5056551;28;20502;-75
2022/04/28 02:15:45;;;;;;;9.80;2.30;;;10.80;95.10;;;;;;5056829;28;20245;-74
2022/04/28 02:18:11;;;;;;;11.10;2.35;;;10.80;95.20;;;;;;5056605;28;20435;-74
2022/04/28 02:20:37;;;;;;;10.15;2.70;;;10.80;95.10;;;;;;5039783;28;20098;-74
2022/04/28 02:23:03;;;;;;;5.47;2.20;;;10.90;95.00;;;;;;5056368;28;20041;-74
2022/04/28 02:25:28;;;;;;;6.30;2.70;;;10.80;95.50;;;;;;5056354;28;20037;-74
2022/04/28 02:27:55;;;;;;;6.80;2.08;;;10.80;95.40;;;;;;5056295;28;20051;-75
2022/04/28 02:30:20;;;;;;;6.53;2.17;;;10.90;95.50;;;;;;5056001;28;20048;-74
2022/04/28 02:35:30;;;;;;;5.35;2.72;;;10.80;95.40;;;;;;5055953;28;20522;-74
2022/04/28 02:37:56;;;;;;;10.20;2.95;;;10.80;95.40;;;;;;5056129;28;20080;-74
2022/04/28 02:40:22;;;;;;;6.20;2.42;;;10.80;95.40;;;;;;5039516;28;20091;-74
2022/04/28 02:42:47;;;;;;;7.88;2.65;;;10.80;95.40;;;;;;5056048;28;20098;-74
2022/04/28 02:45:13;;;;;;;9.52;2.92;;;10.80;95.50;;;;;;5054967;28;20060;-74
2022/04/28 02:47:39;;;;;;;9.48;2.65;;;10.80;95.40;;;;;;5039329;28;20093;-74
2022/04/28 02:50:05;;;;;;;8.05;2.47;;;10.80;95.50;;;;;;5055641;28;20136;-74
2022/04/28 02:52:31;;;;;;;9.75;2.30;;;10.80;95.70;;;;;;5055556;28;20045;-74
2022/04/28 02:54:57;;;;;;;8.68;2.10;;;10.80;95.70;;;;;;5055627;28;20075;-74
2022/04/28 02:57:23;;;;;;;7.93;2.58;;;10.80;95.90;;;;;;5055700;28;20057;-74
2022/04/28 02:59:48;;;;;;;8.40;2.50;;;10.80;95.70;;;;;;5022736;28;20049;-74
2022/04/28 03:02:14;;;;;;;9.88;2.22;;;10.80;95.70;;;;;;5038945;28;20088;-74
2022/04/28 03:04:39;;;;;;;7.90;2.40;;;10.80;95.80;;;;;;5039107;28;20090;-74
2022/04/28 03:12:36;;;;;;;6.50;2.50;;;10.80;95.80;;;;;;5041456;28;20083;-74
2022/04/28 03:15:05;;;;;;;8.65;2.30;;;10.80;96.00;;;;;;5038370;28;20495;-74
2022/04/28 03:17:30;;;;;;;8.05;2.40;;;10.80;96.00;;;;;;5054606;28;20173;-74
2022/04/28 03:19:56;;;;;;;6.40;2.25;;;10.90;96.20;;;;;;5038849;28;20037;-74
2022/04/28 03:22:22;;;;;;;8.23;2.33;;;10.80;95.90;;;;;;5055319;28;20041;-74
2022/04/28 03:24:48;;;;;;;7.70;2.33;;;10.80;95.80;;;;;;5055294;28;20396;-74
2022/04/28 03:27:13;;;;;;;8.63;2.67;;;10.80;95.80;;;;;;5055214;28;20056;-74
2022/04/28 03:29:40;;;;;;;6.05;2.28;;;10.80;96.00;;;;;;5054912;28;20044;-74
2022/04/28 03:32:08;;;;;;;7.80;2.40;;;10.80;96.20;;;;;;5055082;28;20547;-74
2022/04/28 03:34:34;;;;;;;6.28;2.38;;;10.80;96.40;;;;;;5055145;28;20395;-75
2022/04/28 03:37:00;;;;;;;8.00;2.67;;;10.80;96.20;;;;;;5038092;28;20597;-74
2022/04/28 03:39:26;;;;;;;8.25;2.35;;;10.80;96.30;;;;;;5055266;28;20098;-74
2022/04/28 03:41:51;;;;;;;6.97;2.78;;;10.80;96.20;;;;;;5022127;28;20059;-74
2022/04/28 03:44:17;;;;;;;5.57;2.40;;;10.70;96.20;;;;;;5053377;28;20088;-74
2022/04/28 03:46:43;;;;;;;7.72;2.88;;;10.80;96.40;;;;;;5020867;28;20061;-74
2022/04/28 03:49:08;;;;;;;9.20;2.63;;;10.70;96.30;;;;;;5054519;28;20135;-74
2022/04/28 03:51:34;;;;;;;7.38;2.90;;;10.70;96.40;;;;;;5054678;28;20045;-74
2022/04/28 03:54:00;;;;;;;5.70;2.50;;;10.70;96.60;;;;;;5054716;28;20099;-74
2022/04/28 03:56:31;;;;;;;6.95;2.40;;;10.70;96.70;;;;;;5054767;28;20045;-74
2022/04/28 03:59:01;;;;;;;8.50;2.38;;;10.70;96.70;;;;;;5054731;28;20049;-74
2022/04/28 04:01:27;;;;;;;9.48;2.80;;;10.70;96.80;;;;;;5054611;28;20427;-74
2022/04/28 04:03:52;;;;;;;9.55;2.55;;;10.70;96.60;;;;;;5054566;28;20164;-74
2022/04/28 04:06:18;;;;;;;8.13;2.40;;;10.60;96.50;;;;;;5054481;28;20548;-74
2022/04/28 04:08:45;;;;;;;11.48;3.15;;;10.60;96.70;;;;;;5054397;28;20503;-74
2022/04/28 04:11:12;;;;;;;7.35;2.45;;;10.60;96.80;;;;;;5038210;28;20108;-74
2022/04/28 04:13:38;;;;;;;5.57;2.45;;;10.60;96.70;;;;;;5054689;28;20123;-74
2022/04/28 04:16:04;;;;;;;8.77;2.72;;;10.70;96.70;;;;;;5053905;28;20373;-74
2022/04/28 04:18:31;;;;;;;10.02;3.00;;;10.60;96.70;;;;;;5054260;28;20041;-74
2022/04/28 04:20:57;;;;;;;6.05;2.60;;;10.50;96.60;;;;;;5054112;28;20045;-74
2022/04/28 04:23:23;;;;;;;3.97;2.50;;;10.50;96.60;;;;;;5054205;28;20068;-74
2022/04/28 04:25:48;;;;;;;10.23;2.80;;;10.50;96.70;;;;;;5054191;28;20049;-74
2022/04/28 04:28:14;;;;;;;7.38;2.50;;;10.40;96.70;;;;;;5037242;28;20480;-74
2022/04/28 04:33:24;;;;;;;8.65;2.90;;;10.40;97.00;;;;;;5054051;28;20057;-74
2022/04/28 04:35:50;;;;;;;8.35;2.78;;;10.40;97.20;;;;;;5054550;28;20041;-74
2022/04/28 04:38:16;;;;;;;7.80;2.53;;;10.40;97.30;;;;;;5053822;28;20099;-74
2022/04/28 04:40:41;;;;;;;10.98;3.38;;;10.40;97.10;;;;;;5054212;28;20076;-74
2022/04/28 04:43:13;;;;;;;7.60;2.88;;;10.40;97.10;;;;;;5053787;28;20040;-74
2022/04/28 04:45:42;;;;;;;5.90;2.35;;;10.50;97.10;;;;;;5053037;28;20545;-74
2022/04/28 04:48:12;;;;;;;5.82;2.70;;;10.60;97.30;;;;;;5036798;28;20057;-74
2022/04/28 04:50:39;;;;;;;8.40;2.90;;;10.60;97.10;;;;;;5037312;28;20399;-74
2022/04/28 04:53:06;;;;;;;7.57;2.90;;;10.60;97.10;;;;;;5053309;28;20061;-74
2022/04/28 04:55:39;;;;;;;12.45;3.13;;;10.60;97.30;;;;;;5053591;28;20049;-74
2022/04/28 04:58:05;;;;;;;10.02;3.00;;;10.60;97.10;;;;;;5053528;28;20084;-74
2022/04/28 05:00:31;;;;;;;10.63;3.60;;;10.30;97.30;;;;;;5036992;28;20484;-74
2022/04/28 05:02:57;;;;;;;9.63;3.03;;;10.50;97.40;;;;;;5053071;28;20051;-74
2022/04/28 05:05:23;;;;;;;11.68;4.00;;;10.60;97.30;;;;;;5053401;28;20137;-74
2022/04/28 05:07:48;;;;;;;11.90;3.47;;;10.50;97.30;;;;;;5036720;28;20045;-74
2022/04/28 05:10:14;;;;;;;12.27;3.63;;;10.50;97.10;;;;;;5036414;28;20044;-73
2022/04/28 05:12:40;;;;;;;15.48;3.90;;;10.30;97.30;;;;;;5053213;28;20051;-74
2022/04/28 05:15:06;;;;;;;14.20;3.58;;;10.40;97.40;;;;;;5052841;28;20128;-74
2022/04/28 05:17:31;;;;;;;7.53;3.00;;;10.50;97.30;;;;;;5052931;28;20400;-74
2022/04/28 05:19:58;;;;;;;10.10;3.05;;;10.60;97.30;;;;;;5036573;28;20052;-74
2022/04/28 05:22:27;;;;;;;10.68;3.10;;;10.70;97.30;;;;;;5053107;28;20105;-74
2022/04/28 05:24:52;;;;;;;14.35;3.13;;;10.70;97.30;;;;;;5036419;28;20057;-74
2022/04/28 05:27:18;;;;;;;13.32;3.15;;;10.70;97.30;;;;;;5036409;28;20052;-74
2022/04/28 05:29:44;;;;;;;13.00;3.40;;;10.80;97.20;;;;;;5036208;28;20099;-74
2022/04/28 05:32:09;;;;;;;14.15;3.17;;;10.90;97.10;;;;;;5036377;28;20056;-74
2022/04/28 05:34:35;;;;;;;13.82;3.90;;;10.80;97.10;;;;;;5036277;28;20056;-74
2022/04/28 05:37:01;;;;;;;16.08;3.25;;;11.00;97.20;;;;;;5052783;28;20480;-74
2022/04/28 05:39:28;;;;;;;9.25;2.67;;;11.10;97.10;;;;;;5036174;28;20049;-74
2022/04/28 05:41:55;;;;;;;15.15;3.47;;;11.20;97.10;;;;;;5052378;28;20391;-74
2022/04/28 05:47:07;;;;;;;13.07;2.83;;;11.20;97.00;;;;;;5052881;28;20132;-74
2022/04/28 05:49:33;;;;;;;17.75;3.05;;;11.20;97.20;;;;;;5035978;28;20055;-74
2022/04/28 05:51:59;;;;;;;17.05;2.90;;;11.20;97.10;;;;;;5019851;28;20107;-74
2022/04/28 05:54:25;;;;;;;14.63;2.97;;;11.20;97.20;;;;;;5036208;28;20194;-74
2022/04/28 05:56:51;;;;;;;11.60;2.70;;;11.30;97.20;;;;;;5035994;28;20136;-74
2022/04/28 05:59:17;;;;;;;11.90;2.60;;;11.20;97.20;;;;;;5052595;28;20107;-74
2022/04/28 06:01:43;;;;;;;10.57;2.55;;;11.40;97.20;;;;;;5052478;28;20480;-74
2022/04/28 06:04:09;;;;;;;8.25;2.83;;;11.50;97.00;;;;;;5052500;28;20041;-74
2022/04/28 06:06:35;;;;;;;11.38;2.72;;;11.70;97.10;;;;;;5036014;28;20041;-73
2022/04/28 06:09:01;;;;;;;8.57;2.55;;;11.70;96.90;;;;;;5052315;28;20438;-74
2022/04/28 06:11:26;;;;;;;12.43;3.47;;;11.80;96.90;;;;;;5019327;28;20051;-74
2022/04/28 06:13:52;;;;;;;9.25;2.47;;;11.90;96.80;;;;;;5052432;28;20048;-74
2022/04/28 06:16:18;;;;;;;11.85;3.00;;;11.70;96.80;;;;;;5035520;28;20057;-74
2022/04/28 06:18:44;;;;;;;8.75;2.38;;;11.50;96.80;;;;;;5052528;28;20045;-74
2022/04/28 06:21:10;;;;;;;13.82;2.58;;;11.20;97.00;;;;;;5053399;28;20127;-74
2022/04/28 06:23:35;;;;;;;11.30;3.25;;;11.30;97.10;;;;;;5052369;28;20464;-76
2022/04/28 06:26:01;;;;;;;8.20;2.33;;;11.40;97.10;;;;;;5035676;28;20045;-74
2022/04/28 06:28:27;;;;;;;13.38;2.65;;;11.50;97.30;;;;;;5035748;28;20088;-74
2022/04/28 06:30:53;;;;;;;10.55;1.98;;;11.60;97.30;;;;;;5052332;28;20045;-74
2022/04/28 06:33:20;;;;;;;9.05;2.08;;;11.80;97.00;;;;;;5052246;28;20053;-74
2022/04/28 06:35:46;;;;;;;15.00;2.58;;;11.80;96.60;;;;;;5035820;28;20053;-74
2022/04/28 06:38:11;;;;;;;12.23;2.50;;;11.70;96.60;;;;;;5035805;28;20041;-74
2022/04/28 06:40:37;;;;;;;17.65;2.50;;;11.60;96.70;;;;;;5035445;28;20052;-73
2022/04/28 06:43:03;;;;;;;13.80;3.03;;;11.60;96.70;;;;;;5051942;28;20162;-73
2022/04/28 06:45:29;;;;;;;12.65;2.20;;;11.70;96.70;;;;;;5018334;28;20049;-73
2022/04/28 06:47:54;;;;;;;8.93;2.08;;;11.60;96.60;;;;;;5035552;28;20123;-73
2022/04/28 06:50:20;;;;;;;10.50;2.20;;;11.80;96.80;;;;;;5035443;28;20036;-74
2022/04/28 06:52:46;;;;;;;10.35;1.90;;;11.90;96.60;;;;;;5038327;28;20088;-74
2022/04/28 06:55:12;;;;;;;14.10;2.08;;;11.90;96.50;;;;;;5055830;28;20128;-74
2022/04/28 06:57:38;;;;;;;12.18;1.70;;;11.70;96.50;;;;;;5039188;28;20486;-74
2022/04/28 07:00:07;;;;;;;9.88;1.58;;;11.80;96.60;;;;;;5055779;28;20056;-74
2022/04/28 07:02:33;;;;;;;11.85;1.70;;;11.60;96.70;;;;;;5055641;28;20053;-74
2022/04/28 07:04:59;;;;;;;10.18;1.88;;;11.70;96.60;;;;;;5055744;28;20450;-75
2022/04/28 07:07:25;;;;;;;9.18;1.48;;;11.80;96.40;;;;;;5055613;28;20125;-74
2022/04/28 07:09:50;;;;;;;7.70;1.50;;;11.80;96.60;;;;;;5038554;28;20479;-74
2022/04/28 07:12:16;;;;;;;12.05;1.77;;;12.10;96.50;;;;;;5038886;28;20061;-74
2022/04/28 07:14:43;;;;;;;10.75;1.73;;;11.80;96.10;;;;;;5038387;28;20052;-74
2022/04/28 07:17:09;;;;;;;12.85;1.52;;;11.90;96.10;;;;;;5039030;28;20438;-74
2022/04/28 07:19:35;;;;;;;9.07;1.65;;;11.90;96.10;;;;;;5038907;28;20092;-74
2022/04/28 07:22:04;;;;;;;12.50;2.00;;;11.80;96.20;;;;;;5055264;28;20077;-75
2022/04/28 07:24:31;;;;;;;8.63;1.42;;;11.80;96.30;;;;;;5038971;28;20048;-74
2022/04/28 07:26:57;;;;;;;10.32;1.50;;;11.80;96.30;;;;;;5038618;28;20053;-74
2022/04/28 07:29:23;;;;;;;11.40;1.80;;;11.90;96.00;;;;;;5055068;28;20067;-74
2022/04/28 07:31:48;;;;;;;11.77;1.55;;;12.00;96.10;;;;;;5055071;28;20041;-74
2022/04/28 07:34:14;;;;;;;4.85;1.10;;;12.10;96.10;;;;;;5055192;28;20049;-73
2022/04/28 07:36:40;;;;;;;6.80;1.65;;;12.20;96.00;;;;;;5055002;28;20082;-74
2022/04/28 07:39:05;;;;;;;9.27;1.67;;;12.40;95.90;;;;;;5038397;28;20045;-74
2022/04/28 07:41:31;;;;;;;7.18;1.70;;;12.40;96.00;;;;;;5038151;28;20112;-74
2022/04/28 07:43:57;;;;;;;10.10;1.30;;;12.50;95.90;;;;;;5054907;28;20049;-74
2022/04/28 07:46:22;;;;;;;6.57;1.48;;;12.60;95.50;;;;;;5054051;28;20061;-73
2022/04/28 07:48:48;;;;;;;9.02;1.55;;;12.70;95.50;;;;;;5038278;28;20476;-73
2022/04/28 07:51:14;;;;;;;10.05;1.67;;;12.70;95.50;;;;;;5038179;28;20464;-74
2022/04/28 07:53:39;;;;;;;12.40;2.13;;;12.80;95.70;;;;;;5054788;28;20477;-72
2022/04/28 07:56:13;;;;;;;8.57;1.70;;;12.80;95.30;;;;;;5055717;28;20519;-70
2022/04/28 07:58:40;;;;;;;13.82;1.77;;;12.70;95.60;;;;;;5037822;28;20049;-70
2022/04/28 08:01:06;;;;;;;9.73;1.45;;;12.80;95.50;;;;;;5054683;28;20131;-70
2022/04/28 08:03:32;;;;;;;14.43;1.85;;;12.90;95.40;;;;;;5039271;28;20148;-71
2022/04/28 08:05:58;;;;;;;9.02;1.55;;;12.90;95.20;;;;;;5054819;28;20488;-70
2022/04/28 08:08:24;;;;;;;13.00;1.80;;;13.10;95.30;;;;;;5055302;28;20092;-70
2022/04/28 08:10:49;;;;;;;7.03;1.77;;;13.00;95.10;;;;;;5054418;28;20067;-70
2022/04/28 08:13:16;;;;;;;16.63;1.70;;;12.80;95.00;;;;;;5054111;28;20067;-70
2022/04/28 08:15:42;;;;;;;8.48;1.42;;;12.80;95.10;;;;;;5053595;28;20055;-70
2022/04/28 08:18:08;;;;;;;10.63;1.70;;;12.80;95.00;;;;;;5054368;28;20044;-70
2022/04/28 08:20:33;;;;;;;10.80;1.35;;;13.00;95.10;;;;;;5054196;28;20166;-69
2022/04/28 08:22:59;;;;;;;9.52;1.52;;;13.00;95.10;;;;;;5054168;28;20056;-70
2022/04/28 08:25:26;;;;;;;10.95;1.20;;;12.90;95.30;;;;;;5053956;28;20102;-69
2022/04/28 08:27:52;;;;;;;11.35;1.58;;;12.50;95.20;;;;;;5053946;28;20060;-72
2022/04/28 08:30:18;;;;;;;5.80;1.27;;;12.30;95.00;;;;;;5054035;28;20053;-72
2022/04/28 08:32:43;;;;;;;9.68;1.27;;;12.30;95.40;;;;;;5053946;28;20084;-72
2022/04/28 08:35:09;;;;;;;9.77;1.60;;;12.50;95.50;;;;;;5054889;28;20045;-72
2022/04/28 08:37:36;;;;;;;8.93;1.20;;;12.90;95.40;;;;;;5037355;28;20063;-71
2022/04/28 08:40:03;;;;;;;6.70;1.05;;;12.90;94.90;;;;;;5054857;28;20080;-71
2022/04/28 08:42:31;;;;;;;10.65;1.80;;;12.70;95.10;;;;;;5053607;28;20045;-71
2022/04/28 08:45:00;;;;;;;10.40;1.63;;;12.80;95.00;;;;;;5053061;28;20087;-72
2022/04/28 08:47:27;;;;;;;9.90;1.75;;;13.00;95.20;;;;;;5037144;28;20091;-72
2022/04/28 08:49:52;;;;;;;8.38;1.48;;;13.40;95.20;;;;;;5036845;28;20041;-72
2022/04/28 08:52:18;;;;;;;6.72;1.77;;;13.60;95.20;;;;;;5037107;28;20136;-72
2022/04/28 08:54:45;;;;;;;6.63;1.40;;;13.60;94.60;;;;;;5054537;28;20045;-70
2022/04/28 08:57:13;;;;;;;12.05;1.88;;;13.80;94.90;;;;;;5054747;28;20527;-71
2022/04/28 08:59:39;;;;;;;8.35;1.92;;;13.90;94.90;;;;;;5036924;28;20053;-71
2022/04/28 09:02:06;;;;;;;11.88;2.33;;;13.70;94.80;;;;;;5054327;28;20492;-71
2022/04/28 09:04:32;;;;;;;14.65;2.83;;;13.60;95.20;;;;;;5036848;28;20048;-72
2022/04/28 09:06:58;;;;;;;12.52;2.85;;;13.60;95.00;;;;;;5036674;28;20491;-71
2022/04/28 09:09:27;;;;;;;8.85;2.38;;;13.70;95.10;;;;;;5036562;28;20068;-71
2022/04/28 09:12:01;;;;;;;12.20;2.92;;;13.50;94.70;;;;;;5020158;28;20091;-71
2022/04/28 09:14:27;;;;;;;9.93;2.47;;;13.70;94.80;;;;;;5035873;28;20052;-71
2022/04/28 09:16:59;;;;;;;12.90;2.88;;;13.60;94.50;;;;;;5053581;28;20060;-71
2022/04/28 09:19:34;;;;;;;15.38;3.05;;;13.40;94.30;;;;;;5036632;28;20060;-87
2022/04/28 09:22:12;;;;;;;9.55;2.53;;;13.40;94.80;;;;;;5036597;28;20045;-71
2022/04/28 09:24:43;;;;;;;10.05;2.85;;;13.40;94.60;;;;;;5036574;28;20195;-71
2022/04/28 09:27:09;;;;;;;11.55;2.42;;;13.20;94.70;;;;;;5053996;28;20155;-71
2022/04/28 09:29:39;;;;;;;12.68;3.03;;;13.10;94.60;;;;;;5053524;28;20132;-71
2022/04/28 09:32:12;;;;;;;10.93;2.78;;;13.20;94.70;;;;;;5053885;28;20040;-71
2022/04/28 09:34:49;;;;;;;16.70;3.25;;;13.40;94.80;;;;;;5053916;28;20052;-72
2022/04/28 09:37:16;;;;;;;;;;;13.70;94.70;;;;;;5054326;28;20488;-71
2022/04/28 09:42:31;;;;;;;12.93;2.45;;;13.70;94.70;;;;;;5036392;28;20506;-88
2022/04/28 09:45:00;;;;;;;12.40;2.30;;;13.70;94.70;;;;;;5003888;28;20186;-88
2022/04/28 09:47:27;;;;;;;9.90;2.25;;;13.60;94.80;;;;;;5052321;28;20099;-88
2022/04/28 09:49:55;;;;;;;18.25;3.30;;;13.30;94.90;;;;;;5052661;28;20074;-87
2022/04/28 09:52:24;;;;;;;11.05;2.20;;;13.10;94.90;;;;;;5019867;28;20492;-86
2022/04/28 09:54:54;;;;;;;10.40;2.22;;;13.10;95.30;;;;;;5036276;28;20091;-87
2022/04/28 09:57:22;;;;;;;15.20;2.60;;;13.10;95.20;;;;;;5020254;28;20049;-86
2022/04/28 09:59:49;;;;;;;6.97;1.83;;;13.10;95.20;;;;;;5036208;28;20048;-87
2022/04/28 10:02:20;;;;;;;14.82;2.38;;;13.00;95.30;;;;;;5036543;28;20090;-87
2022/04/28 10:04:47;;;;;;;16.08;2.80;;;13.10;95.50;;;;;;5020086;28;20052;-87
2022/04/28 10:07:13;;;;;;;11.52;2.40;;;13.00;95.40;;;;;;5019896;28;20045;-88
2022/04/28 10:09:41;;;;;;;10.73;2.35;;;12.90;95.40;;;;;;5036162;28;20037;-88
2022/04/28 10:12:09;;;;;;;12.07;2.35;;;13.00;95.20;;;;;;5035996;28;20053;-81
2022/04/28 10:14:39;;;;;;;10.52;2.45;;;13.30;95.60;;;;;;5035548;28;20456;-88
2022/04/28 10:17:11;;;;;;;7.68;1.85;;;13.50;95.40;;;;;;5052540;28;20107;-72
2022/04/28 10:19:44;;;;;;;11.82;2.15;;;13.70;95.10;;;;;;5053076;28;20399;-77
2022/04/28 10:22:13;;;;;;;9.82;2.13;;;13.70;95.10;;;;;;5053433;28;20136;-89
2022/04/28 10:33:17;;;;;;;9.38;2.13;;;13.40;95.40;;;;;;5057490;28;20081;-91
2022/04/28 10:35:54;;;;;;;13.10;1.88;;;13.30;95.20;;;;;;5057019;28;20087;-86
2022/04/28 10:38:20;;;;;;;10.10;2.20;;;13.10;94.90;;;;;;5057261;28;20037;-85
2022/04/28 10:40:59;;;;;;;11.65;2.00;;;13.10;95.40;;;;;;5057071;28;20041;-85
2022/04/28 10:43:25;;;;;;;7.45;1.70;;;13.40;95.20;;;;;;5056433;28;20087;-84
2022/04/28 10:45:53;;;;;;;13.98;2.03;;;13.50;95.20;;;;;;5038876;28;20511;-84
2022/04/28 10:48:26;;;;;;;12.20;2.08;;;13.30;95.10;;;;;;5056790;28;20091;-87
2022/04/28 10:51:10;;;;;;;10.27;2.17;;;13.40;95.30;;;;;;5058835;28;20095;-85
2022/04/28 10:53:54;;;;;;;10.10;2.20;;;13.50;95.10;;;;;;5039948;28;20037;-87
2022/04/28 10:56:20;;;;;;;14.88;2.83;;;13.40;95.40;;;;;;5056663;28;20099;-88
2022/04/28 10:58:45;;;;;;;13.82;2.03;;;13.40;95.40;;;;;;5056420;28;20037;-88
2022/04/28 11:01:27;;;;;;;13.45;2.05;;;13.60;95.60;;;;;;5056098;28;20098;-86
2022/04/28 11:03:53;;;;;;;8.18;2.00;;;13.60;95.40;;;;;;5039712;28;20044;-89
2022/04/28 11:06:21;;;;;;;9.02;1.70;;;13.50;95.40;;;;;;5056024;28;20391;-85
2022/04/28 11:08:53;;;;;;;15.50;2.22;;;13.50;95.20;;;;;;5039243;28;20053;-74
2022/04/28 11:11:19;;;;;;;11.95;2.08;;;13.40;95.30;;;;;;5055754;28;20044;-72
2022/04/28 11:13:57;;;;;;;14.10;1.80;;;13.80;95.40;;;;;;5038918;28;20045;-71
2022/04/28 11:16:24;;;;;;;14.35;2.38;;;14.00;95.20;;;;;;5056337;28;20078;-71
2022/04/28 11:18:50;;;;;;;8.30;1.70;;;14.10;95.20;;;;;;5055323;28;20049;-71
2022/04/28 11:21:16;;;;;;;8.25;1.80;;;14.40;94.90;;;;;;5056433;28;20469;-71
2022/04/28 11:23:44;;;;;;;9.73;1.60;;;14.40;94.80;;;;;;5055251;28;20392;-70
2022/04/28 11:26:10;;;;;;;9.23;1.80;;;14.30;94.90;;;;;;5055550;28;20045;-78
2022/04/28 11:28:37;;;;;;;10.32;2.17;;;14.60;94.80;;;;;;5039096;28;20055;-87
2022/04/28 11:31:08;;;;;;;9.80;2.30;;;14.10;94.80;;;;;;5055561;28;20499;-86
2022/04/28 11:33:34;;;;;;;13.50;2.10;;;14.00;94.80;;;;;;5038952;28;20049;-86
2022/04/28 11:36:02;;;;;;;9.73;1.95;;;13.80;95.10;;;;;;5022642;28;20060;-86
2022/04/28 11:38:31;;;;;;;7.15;1.88;;;13.70;95.00;;;;;;5021546;28;20545;-86
2022/04/28 11:41:00;;;;;;;10.93;2.20;;;14.00;95.20;;;;;;5038868;28;20557;-86
2022/04/28 11:43:36;;;;;;;14.65;2.40;;;13.70;94.90;;;;;;5038510;28;20060;-84
2022/04/28 11:46:02;;;;;;;15.45;2.30;;;13.60;95.10;;;;;;5054594;28;20049;-85
2022/04/28 11:48:29;;;;;;;8.82;1.80;;;13.60;95.40;;;;;;5022222;28;20187;-87
2022/04/28 11:51:04;;;;;;;8.98;1.63;;;13.70;95.20;;;;;;5005909;28;20045;-85
2022/04/28 11:53:45;;;;;;;5.20;1.60;;;13.80;95.20;;;;;;5028662;28;20053;-91
2022/04/28 11:56:31;;;;;;;28.08;3.05;;;13.60;95.10;;;;;;5038595;28;20047;-89
2022/04/28 11:59:01;;;;;;;7.63;1.77;;;13.50;95.00;;;;;;5021896;28;20051;-87
2022/04/28 12:01:30;;;;;;;21.95;3.15;;;13.60;95.00;;;;;;5022585;28;20048;-86
2022/04/28 12:03:58;;;;;;;31.17;3.10;;;13.60;95.20;;;;;;5021937;28;20045;-71
2022/04/28 12:06:25;;;;;;;15.10;1.95;;;13.90;95.30;;;;;;5037998;28;20051;-75
2022/04/28 12:08:58;;;;;;;15.50;3.22;;;14.00;95.00;;;;;;5038321;28;20391;-87
2022/04/28 12:14:25;;;;;;;9.80;2.83;;;14.00;94.70;;;;;;5037871;28;20053;-88
2022/04/28 12:19:59;;;;;;;9.90;2.03;;;13.60;95.10;;;;;;5037819;28;20118;-86
2022/04/28 12:22:37;;;;;;;14.88;2.40;;;13.70;94.60;;;;;;5021272;28;20044;-86
2022/04/28 12:25:06;;;;;;;13.63;2.28;;;13.70;94.80;;;;;;5038133;28;20083;-87
2022/04/28 12:27:46;;;;;;;7.63;1.88;;;13.50;94.60;;;;;;5021223;28;20056;-86
2022/04/28 12:30:17;;;;;;;8.13;2.00;;;13.70;95.00;;;;;;5036375;28;20040;-82
2022/04/28 12:32:46;;;;;;;11.23;2.53;;;13.90;95.00;;;;;;5020613;28;20114;-82
2022/04/28 12:35:25;;;;;;;12.18;2.35;;;14.20;94.30;;;;;;5020727;28;20143;-82
2022/04/28 12:37:56;;;;;;;12.23;2.80;;;14.00;94.70;;;;;;5037213;28;20102;-82
2022/04/28 12:40:23;;;;;;;9.95;2.33;;;13.90;94.70;;;;;;5036348;28;20068;-82
2022/04/28 12:42:50;;;;;;;10.80;2.20;;;13.70;94.90;;;;;;5036816;28;20400;-82
2022/04/28 12:45:33;;;;;;;14.57;2.65;;;13.70;94.80;;;;;;5036440;28;20057;-91
2022/04/28 12:47:59;;;;;;;9.50;2.22;;;13.60;94.80;;;;;;5050262;28;20045;-89
2022/04/28 12:50:25;;;;;;;8.43;2.40;;;13.50;94.70;;;;;;5051559;28;20044;-82
2022/04/28 12:52:51;;;;;;;10.05;2.55;;;13.60;94.80;;;;;;5036871;28;20052;-82
2022/04/28 12:55:21;;;;;;;7.68;2.10;;;13.90;95.00;;;;;;5036801;28;20056;-82
2022/04/28 12:57:49;;;;;;;10.25;2.30;;;13.50;94.50;;;;;;5037246;28;20045;-82
2022/04/28 13:00:18;;;;;;;12.40;2.28;;;13.50;94.90;;;;;;5036922;28;20484;-81
2022/04/28 13:02:51;;;;;;;10.90;1.90;;;14.10;95.00;;;;;;5036645;28;20537;-81
2022/04/28 13:05:19;;;;;;;8.45;1.85;;;14.30;95.00;;;;;;5037043;28;20049;-81
2022/04/28 13:07:45;;;;;;;10.50;1.67;;;14.20;94.80;;;;;;5053397;28;20045;-82
2022/04/28 13:10:16;;;;;;;8.95;1.63;;;14.40;94.90;;;;;;5053119;28;20041;-81
2022/04/28 13:12:42;;;;;;;21.33;3.42;;;14.50;94.60;;;;;;5053338;28;20049;-82
2022/04/28 13:15:09;;;;;;;68.82;12.30;;;14.80;94.90;;;;;;5052997;28;20391;-82
2022/04/28 13:17:36;;;;;;;52.90;11.70;;;14.90;94.60;;;;;;5053410;28;20052;-82
2022/04/28 13:20:06;;;;;;;31.75;5.50;;;14.50;94.80;;;;;;5036669;28;20128;-82